Time;durP1;ratioP1;P1;durP2;ratioP2;P2;SDS_P1;SDS_P2;PMS_P1;PMS_P2;Temp;Humidity;BMP_temperature;BMP_pressure;BME280_temperature;BME280_humidity;BME280_pressure;Samples;Min_cycle;Max_cycle;Signal;HPM_P1;HPM_P2
2022/06/01 00:01:50;;;;;;;;;1.00;1.00;;;;;17.73;40.14;101048.25;5115624;27;45284;-71
2022/06/01 00:04:17;;;;;;;;;2.67;2.67;;;;;17.72;40.52;101046.44;5112488;27;45408;-70
2022/06/01 00:06:42;;;;;;;;;1.33;1.33;;;;;17.66;40.77;101044.63;5124979;27;45005;-71
2022/06/01 00:09:08;;;;;;;;;2.00;2.00;;;;;17.63;40.37;101039.22;5131234;27;45016;-70
2022/06/01 00:11:33;;;;;;;;;5.33;2.00;;;;;17.53;39.90;101024.78;5132749;27;45727;-71
2022/06/01 00:13:59;;;;;;;;;2.33;1.00;;;;;17.61;40.64;101052.72;5128881;27;45072;-70
2022/06/01 00:16:24;;;;;;;;;3.33;3.33;;;;;17.33;39.65;101037.34;5123245;27;45124;-71
2022/06/01 00:18:50;;;;;;;;;2.33;1.00;;;;;17.64;40.83;101062.66;5115037;27;44875;-71
2022/06/01 00:21:15;;;;;;;;;1.00;1.00;;;;;17.63;40.44;101063.53;5122761;27;45245;-71
2022/06/01 00:23:40;;;;;;;;;1.00;1.00;;;;;17.62;40.89;101056.31;5123420;27;46343;-70
2022/06/01 00:26:06;;;;;;;;;1.00;1.00;;;;;17.52;40.73;101051.78;5097035;27;45120;-70
2022/06/01 00:28:32;;;;;;;;;1.33;1.00;;;;;17.55;40.91;101062.63;5134940;27;45478;-70
2022/06/01 00:30:57;;;;;;;;;1.00;1.00;;;;;17.15;40.95;101003.97;5133741;27;45200;-70
2022/06/01 00:33:23;;;;;;;;;2.67;2.00;;;;;17.52;40.70;101059.91;5125077;27;45584;-70
2022/06/01 00:35:49;;;;;;;;;1.00;1.00;;;;;17.17;41.14;101007.56;5113995;27;45741;-71
2022/06/01 00:38:16;;;;;;;;;2.00;0.33;;;;;17.46;40.66;101055.41;5115005;27;45027;-71
2022/06/01 00:40:43;;;;;;;;;1.33;1.33;;;;;17.48;41.02;101061.69;5113620;27;46899;-71
2022/06/01 00:43:21;;;;;;;;;2.00;1.00;;;;;17.48;41.57;101069.81;5115731;27;45249;-71
2022/06/01 00:45:47;;;;;;;;;2.00;2.00;;;;;17.42;41.72;101068.00;5125842;27;44940;-71
2022/06/01 00:48:13;;;;;;;;;1.00;1.00;;;;;17.39;41.58;101062.56;5111559;27;45161;-70
2022/06/01 00:50:42;;;;;;;;;2.67;1.00;;;;;17.00;41.33;100995.84;5132648;27;45264;-71
2022/06/01 00:53:16;;;;;;;;;4.00;3.00;;;;;17.35;41.76;101062.56;5121465;27;45371;-71
2022/06/01 00:55:48;;;;;;;;;2.33;1.00;;;;;17.24;41.70;101046.31;5104853;27;45049;-70
2022/06/01 00:58:18;;;;;;;;;2.00;2.00;;;;;17.31;41.55;101065.25;5114072;27;45119;-70
2022/06/01 01:00:45;;;;;;;;;1.00;1.00;;;;;17.28;41.68;101053.53;5133723;27;45581;-70
2022/06/01 01:03:13;;;;;;;;;1.00;1.00;;;;;17.32;41.74;101063.44;5129525;27;45296;-70
2022/06/01 01:05:43;;;;;;;;;2.00;1.00;;;;;17.33;42.13;101067.94;5117021;27;44975;-70
2022/06/01 01:08:09;;;;;;;;;1.33;1.33;;;;;17.34;41.93;101066.13;5111950;27;45174;-70
2022/06/01 01:10:35;;;;;;;;;1.00;1.00;;;;;17.30;41.68;101066.13;5092826;27;47617;-70
2022/06/01 01:13:04;;;;;;;;;3.00;1.00;;;;;17.24;42.21;101057.09;5112521;27;45352;-70
2022/06/01 01:15:34;;;;;;;;;3.00;2.00;;;;;17.28;42.01;101062.53;5112654;27;45072;-70
2022/06/01 01:18:01;;;;;;;;;3.33;2.00;;;;;17.27;42.15;101068.84;5108607;27;45251;-71
2022/06/01 01:20:28;;;;;;;;;1.00;1.00;;;;;17.26;42.13;101061.63;5114647;27;45660;-70
2022/06/01 01:23:06;;;;;;;;;1.00;1.00;;;;;17.25;42.18;101061.63;5122227;27;45411;-70
2022/06/01 01:25:33;;;;;;;;;1.00;1.00;;;;;17.20;42.00;101049.91;5113544;27;45094;-70
2022/06/01 01:28:03;;;;;;;;;2.00;0.67;;;;;17.06;42.35;101030.94;5113455;27;45525;-71
2022/06/01 01:31:08;;;;;;;;;0.67;0.67;;;;;17.14;42.25;101053.47;5112647;27;46629;-70
2022/06/01 01:33:34;;;;;;;;;1.67;1.00;;;;;17.10;42.40;101051.66;5109235;27;45138;-70
2022/06/01 01:36:04;;;;;;;;;1.67;1.00;;;;;17.11;42.10;101056.16;5122471;27;45263;-70
2022/06/01 01:38:54;;;;;;;;;1.00;1.00;;;;;17.10;42.19;101054.34;5113827;27;44973;-70
2022/06/01 01:41:38;;;;;;;;;1.00;1.00;;;;;16.94;42.22;101035.41;5113572;27;45341;-71
2022/06/01 01:44:04;;;;;;;;;2.67;1.67;;;;;17.04;42.08;101052.53;5123771;27;45263;-71
2022/06/01 01:46:30;;;;;;;;;1.00;1.00;;;;;16.95;42.60;101055.19;5119257;27;45355;-70
2022/06/01 01:48:55;;;;;;;;;1.00;1.00;;;;;16.40;42.79;100970.31;5116337;27;45282;-71
2022/06/01 01:51:23;;;;;;;;;1.33;1.33;;;;;16.84;42.77;101046.09;5128990;27;45174;-70
2022/06/01 01:53:49;;;;;;;;;1.00;1.00;;;;;16.94;42.62;101056.06;5118479;27;45184;-71
2022/06/01 01:56:55;;;;;;;;;2.67;1.00;;;;;16.91;42.44;101062.38;5117386;27;45064;-70
2022/06/01 01:59:45;;;;;;;;;0.33;0.33;;;;;16.93;42.96;101057.88;5120746;27;45300;-70
2022/06/01 02:02:20;;;;;;;;;1.00;1.00;;;;;16.94;42.86;101051.59;5110861;27;45636;-70
2022/06/01 02:07:53;;;;;;;;;2.33;1.00;;;;;16.92;43.01;101047.06;5113279;27;45182;-70
2022/06/01 02:13:05;;;;;;;;;1.67;1.67;;;;;16.92;43.08;101038.97;5136443;27;46133;-71
2022/06/01 02:15:34;;;;;;;;;3.67;2.00;;;;;16.46;42.98;100960.47;5103303;27;45538;-71
2022/06/01 02:18:05;;;;;;;;;4.00;2.00;;;;;16.74;42.66;100993.88;5118422;27;45394;-71
2022/06/01 02:20:42;;;;;;;;;1.00;1.00;;;;;16.95;43.19;101037.19;5116540;27;45060;-71
2022/06/01 02:23:11;;;;;;;;;2.00;2.00;;;;;16.92;42.92;101023.66;5133004;27;45468;-71
2022/06/01 02:25:38;;;;;;;;;1.33;1.33;;;;;16.86;43.20;101022.75;5119299;27;45022;-70
2022/06/01 02:28:05;;;;;;;;;3.00;1.67;;;;;16.81;43.21;101017.28;5136439;27;44985;-71
2022/06/01 02:30:35;;;;;;;;;2.67;1.33;;;;;16.77;43.21;100997.47;5129038;27;45188;-70
2022/06/01 02:33:03;;;;;;;;;2.00;2.00;;;;;16.95;43.01;101028.19;5124320;27;45721;-70
2022/06/01 02:35:34;;;;;;;;;3.67;2.67;;;;;16.87;43.66;101016.47;5109440;27;45018;-71
2022/06/01 02:38:01;;;;;;;;;3.00;3.00;;;;;16.90;43.47;101030.88;5115388;27;45061;-70
2022/06/01 02:40:29;;;;;;;;;1.33;1.33;;;;;16.89;42.99;101026.34;5114927;27;45274;-70
2022/06/01 02:42:54;;;;;;;;;1.33;1.33;;;;;16.85;43.39;101019.16;5114733;27;45489;-70
2022/06/01 02:45:22;;;;;;;;;1.00;1.00;;;;;16.86;43.14;101026.38;5116564;27;45415;-70
2022/06/01 02:47:52;;;;;;;;;1.00;1.00;;;;;16.76;43.54;101016.34;5118398;27;45087;-70
2022/06/01 02:50:23;;;;;;;;;1.33;0.67;;;;;16.75;43.72;101037.06;5121544;27;45352;-70
2022/06/01 02:52:48;;;;;;;;;1.67;1.67;;;;;16.73;43.53;101025.34;5116250;27;45666;-70
2022/06/01 02:55:15;;;;;;;;;2.33;1.00;;;;;16.69;43.87;101015.44;5112623;27;45162;-70
2022/06/01 02:57:43;;;;;;;;;1.67;1.67;;;;;16.50;43.65;100992.84;5110808;27;45313;-70
2022/06/01 03:00:19;;;;;;;;;2.67;2.67;;;;;16.33;44.08;100956.78;5117073;27;44944;-70
2022/06/01 03:02:52;;;;;;;;;3.00;2.00;;;;;16.69;44.17;101023.53;5114990;27;46176;-70
2022/06/01 03:05:22;;;;;;;;;2.33;1.67;;;;;16.62;44.14;101012.72;5131119;27;45013;-70
2022/06/01 03:07:47;;;;;;;;;2.00;2.00;;;;;16.64;44.06;101017.19;5116291;27;45080;-70
2022/06/01 03:10:14;;;;;;;;;1.00;1.00;;;;;16.62;44.42;101010.00;5121489;27;45103;-71
2022/06/01 03:12:40;;;;;;;;;2.00;1.67;;;;;16.61;44.47;101016.28;5121623;27;45631;-70
2022/06/01 03:15:08;;;;;;;;;13.00;10.75;;;;;16.60;44.33;101018.09;5118610;27;44997;-71
2022/06/01 03:17:34;;;;;;;;;8.00;5.00;;;;;16.60;44.67;101023.47;5118860;27;45194;-70
2022/06/01 03:20:00;;;;;;;;;5.00;5.00;;;;;16.61;44.39;101025.28;5108937;27;45143;-70
2022/06/01 03:22:25;;;;;;;;;6.67;4.33;;;;;16.61;44.53;101027.06;5115435;27;45289;-70
2022/06/01 03:24:51;;;;;;;;;2.00;2.00;;;;;16.55;44.28;101015.34;5116089;27;45117;-70
2022/06/01 03:27:17;;;;;;;;;4.25;2.75;;;;;16.55;44.90;101023.44;5133020;27;45289;-70
2022/06/01 03:29:42;;;;;;;;;1.67;1.67;;;;;16.59;44.95;101032.47;5113805;27;44993;-71
2022/06/01 03:32:08;;;;;;;;;1.67;1.67;;;;;16.54;44.52;101027.03;5131600;27;46332;-70
2022/06/01 03:34:34;;;;;;;;;5.00;3.00;;;;;16.54;45.04;101032.41;5115874;27;45365;-71
2022/06/01 03:36:59;;;;;;;;;3.33;3.33;;;;;16.51;44.87;101029.69;5121275;27;45328;-71
2022/06/01 03:39:25;;;;;;;;;5.50;4.25;;;;;16.50;45.02;101040.47;5120497;27;45150;-70
2022/06/01 03:41:50;;;;;;;;;2.33;2.33;;;;;16.48;44.87;101039.56;5116832;27;45798;-71
2022/06/01 03:47:05;;;;;;;;;2.33;2.33;;;;;16.46;44.79;101042.25;5121710;27;44909;-71
2022/06/01 03:49:32;;;;;;;;;3.67;3.67;;;;;16.45;45.04;101040.47;5117521;27;45053;-70
2022/06/01 03:51:58;;;;;;;;;3.00;3.00;;;;;16.29;45.12;101017.00;5117012;27;45504;-70
2022/06/01 03:54:24;;;;;;;;;4.33;4.33;;;;;16.02;45.58;100968.28;5113720;27;45212;-71
2022/06/01 03:56:49;;;;;;;;;7.00;3.50;;;;;16.40;45.27;101042.25;5118754;27;45189;-70
2022/06/01 03:59:14;;;;;;;;;6.00;4.00;;;;;16.32;45.38;101025.09;5129231;27;45131;-71
2022/06/01 04:01:40;;;;;;;;;4.67;3.00;;;;;16.42;45.07;101042.25;5124084;27;45556;-71
2022/06/01 04:04:05;;;;;;;;;3.67;3.67;;;;;16.37;45.65;101051.19;5117640;27;45148;-70
2022/06/01 04:06:30;;;;;;;;;3.33;3.33;;;;;16.21;45.03;101014.22;5116205;27;45178;-70
2022/06/01 04:08:57;;;;;;;;;4.75;4.75;;;;;16.21;45.21;101017.81;5115203;27;45215;-70
2022/06/01 04:11:22;;;;;;;;;3.33;2.00;;;;;15.93;45.49;100978.97;5118630;27;45204;-70
2022/06/01 04:13:47;;;;;;;;;3.00;3.00;;;;;16.41;45.60;101054.81;5114936;27;45066;-70
2022/06/01 04:16:13;;;;;;;;;3.00;3.00;;;;;16.40;45.50;101045.81;5119290;27;45149;-70
2022/06/01 04:18:38;;;;;;;;;4.00;3.33;;;;;16.37;45.65;101048.50;5115672;27;45194;-70
2022/06/01 04:21:03;;;;;;;;;6.00;4.00;;;;;16.38;45.75;101055.72;5128850;27;46044;-71
2022/06/01 04:23:29;;;;;;;;;3.67;2.67;;;;;16.38;45.76;101055.72;5134341;27;45004;-71
2022/06/01 04:25:55;;;;;;;;;4.67;4.67;;;;;15.89;45.56;100970.84;5127317;27;45301;-70
2022/06/01 04:28:20;;;;;;;;;4.00;4.00;;;;;15.77;45.99;100952.78;5118100;27;45029;-70
2022/06/01 04:30:46;;;;;;;;;4.50;4.50;;;;;16.38;45.82;101068.28;5113802;27;45437;-69
2022/06/01 04:33:12;;;;;;;;;6.25;3.25;;;;;16.39;45.91;101068.28;5103958;27;45499;-70
2022/06/01 04:35:37;;;;;;;;;4.75;4.75;;;;;16.43;45.97;101065.59;5107298;27;45376;-70
2022/06/01 04:38:15;;;;;;;;;7.25;4.50;;;;;16.28;45.73;101052.91;5111187;27;45263;-70
2022/06/01 04:40:46;;;;;;;;;3.67;3.67;;;;;16.34;45.90;101074.53;5118775;27;45381;-70
2022/06/01 04:43:13;;;;;;;;;4.50;4.50;;;;;16.27;46.11;101068.19;5127936;27;45087;-70
2022/06/01 04:45:39;;;;;;;;;5.75;5.75;;;;;16.21;46.12;101058.25;5107492;27;45537;-71
2022/06/01 04:48:04;;;;;;;;;7.00;3.75;;;;;16.30;46.40;101079.00;5111366;27;45459;-69
2022/06/01 04:50:29;;;;;;;;;7.00;6.75;;;;;16.17;46.30;101063.63;5111204;27;45189;-70
2022/06/01 04:52:56;;;;;;;;;5.00;4.00;;;;;16.25;46.53;101080.78;5108526;27;45021;-70
2022/06/01 04:55:22;;;;;;;;;6.00;4.25;;;;;16.21;46.80;101087.00;5111629;27;45355;-70
2022/06/01 04:57:48;;;;;;;;;4.00;4.00;;;;;16.21;47.11;101090.59;5105727;27;45394;-70
2022/06/01 05:00:14;;;;;;;;;4.75;4.75;;;;;16.14;47.62;101088.75;5121116;27;45532;-70
2022/06/01 05:02:39;;;;;;;;;4.25;4.25;;;;;16.12;47.70;101090.53;5131111;27;45049;-70
2022/06/01 05:05:05;;;;;;;;;8.50;7.25;;;;;16.09;48.11;101100.41;5105687;27;45460;-69
2022/06/01 05:07:31;;;;;;;;;7.00;5.75;;;;;16.08;47.98;101102.16;5112294;27;45337;-70
2022/06/01 05:09:56;;;;;;;;;6.50;6.00;;;;;15.98;47.95;101076.91;5111708;27;48114;-70
2022/06/01 05:12:21;;;;;;;;;12.25;9.00;;;;;15.97;47.61;101066.13;5114799;27;45481;-70
2022/06/01 05:14:47;;;;;;;;;8.50;8.50;;;;;16.15;47.82;101104.06;5122782;27;45633;-70
2022/06/01 05:17:12;;;;;;;;;11.25;7.25;;;;;16.19;47.95;101113.97;5110579;27;45198;-70
2022/06/01 05:19:37;;;;;;;;;8.25;7.00;;;;;16.18;47.80;101119.34;5109566;27;45488;-70
2022/06/01 05:22:04;;;;;;;;;3.00;2.00;;;;;16.10;47.76;101097.72;5109220;27;45550;-70
2022/06/01 05:24:29;;;;;;;;;9.00;7.75;;;;;16.13;47.36;101111.19;5126151;27;45016;-70
2022/06/01 05:26:55;;;;;;;;;7.50;7.50;;;;;16.00;47.42;101075.16;5111959;27;45629;-70
2022/06/01 05:29:22;;;;;;;;;4.75;4.75;;;;;16.14;47.10;101085.16;5106582;27;47151;-70
2022/06/01 05:31:48;;;;;;;;;17.00;12.75;;;;;16.26;47.60;101114.91;5119158;27;44940;-70
2022/06/01 05:34:13;;;;;;;;;11.75;8.00;;;;;16.31;47.16;101106.88;5107390;27;46551;-70
2022/06/01 05:36:38;;;;;;;;;10.25;8.75;;;;;16.39;47.11;101105.16;5124958;27;45246;-70
2022/06/01 05:39:04;;;;;;;;;4.33;4.00;;;;;16.36;47.05;101086.22;5120847;27;46168;-70
2022/06/01 05:41:30;;;;;;;;;7.75;7.50;;;;;16.37;47.04;101096.16;5126466;27;45033;-69
2022/06/01 05:43:55;;;;;;;;;9.25;8.00;;;;;16.49;46.65;101098.91;5130147;27;45089;-70
2022/06/01 05:46:22;;;;;;;;;7.25;6.00;;;;;16.55;46.70;101095.38;5127205;27;45092;-70
2022/06/01 05:48:48;;;;;;;;;7.00;5.50;;;;;16.54;46.91;101085.47;5130889;27;45651;-71
2022/06/01 05:51:13;;;;;;;;;2.50;2.50;;;;;16.64;46.68;101094.53;5121304;27;45099;-70
2022/06/01 05:53:39;;;;;;;;;6.50;4.25;;;;;16.68;46.71;101094.56;5124279;27;45155;-70
2022/06/01 05:56:04;;;;;;;;;3.33;2.67;;;;;16.51;46.03;101061.19;5114667;27;45222;-71
2022/06/01 05:58:30;;;;;;;;;9.00;4.75;;;;;16.74;45.87;101105.38;5121615;27;45577;-68
2022/06/01 06:01:01;;;;;;;;;3.00;2.00;;;;;16.63;44.96;101071.13;5115153;27;45291;-70
2022/06/01 06:03:27;;;;;;;;;3.00;3.00;;;;;16.73;45.70;101100.00;5121654;27;45066;-69
2022/06/01 06:08:42;;;;;;;;;16.25;15.00;;;;;16.63;46.11;101103.50;5132460;27;45468;-69
2022/06/01 06:11:07;;;;;;;;;14.75;12.50;;;;;16.70;46.07;101106.28;5117884;27;45032;-70
2022/06/01 06:13:36;;;;;;;;;5.00;5.00;;;;;16.69;46.07;101107.16;5116518;27;45162;-69
2022/06/01 06:16:04;;;;;;;;;2.00;2.00;;;;;16.66;44.99;101103.53;5114824;27;45406;-70
2022/06/01 06:18:29;;;;;;;;;7.33;3.67;;;;;16.39;44.88;101051.22;5104821;27;46524;-69
2022/06/01 06:20:55;;;;;;;;;1.67;1.67;;;;;16.58;45.50;101073.81;5117155;27;45213;-70
2022/06/01 06:23:21;;;;;;;;;2.50;2.50;;;;;16.79;45.18;101094.63;5116799;27;45186;-70
2022/06/01 06:25:47;;;;;;;;;4.00;3.33;;;;;16.82;44.41;101102.75;5114699;27;45137;-70
2022/06/01 06:28:12;;;;;;;;;5.00;3.00;;;;;16.91;44.45;101110.03;5116342;27;46489;-70
2022/06/01 06:30:38;;;;;;;;;3.00;2.00;;;;;16.77;44.53;101080.25;5117818;27;45089;-70
2022/06/01 06:33:05;;;;;;;;;4.00;2.00;;;;;16.87;43.69;101084.81;5104643;27;45433;-69
2022/06/01 06:35:31;;;;;;;;;3.75;3.50;;;;;17.04;43.84;101108.31;5108786;27;45146;-71
2022/06/01 06:37:56;;;;;;;;;5.00;3.67;;;;;17.04;43.48;101111.00;5125768;27;45984;-70
2022/06/01 06:40:22;;;;;;;;;16.50;15.25;;;;;17.01;44.13;101110.97;5123375;27;45054;-70
2022/06/01 06:42:48;;;;;;;;;4.00;3.33;;;;;16.77;43.93;101050.56;5115577;27;45221;-71
2022/06/01 06:45:13;;;;;;;;;4.33;3.33;;;;;17.09;43.59;101095.72;5118843;27;45165;-70
2022/06/01 06:47:40;;;;;;;;;15.75;11.00;;;;;17.11;43.47;101099.38;5113490;27;45049;-70
2022/06/01 06:50:09;;;;;;;;;3.00;3.00;;;;;16.91;43.35;101065.06;5108023;27;45036;-69
2022/06/01 06:52:34;;;;;;;;;2.67;2.67;;;;;17.16;42.60;101099.38;5092583;27;44927;-70
2022/06/01 06:54:59;;;;;;;;;3.67;3.00;;;;;17.22;43.05;101092.19;5121310;27;45180;-70
2022/06/01 06:57:25;;;;;;;;;20.75;20.75;;;;;17.25;42.95;101094.91;5112128;27;45208;-70
2022/06/01 06:59:50;;;;;;;;;4.33;4.33;;;;;17.43;42.64;101109.41;5115512;27;45461;-69
2022/06/01 07:02:16;;;;;;;;;3.33;2.00;;;;;17.53;42.92;101122.03;5118428;27;45105;-70
2022/06/01 07:04:43;;;;;;;;;5.33;4.00;;;;;17.54;42.03;101125.63;5114257;27;44916;-69
2022/06/01 07:07:08;;;;;;;;;3.00;1.67;;;;;17.43;43.05;101123.81;5120064;27;46187;-70
2022/06/01 07:09:33;;;;;;;;;3.00;3.00;;;;;17.43;42.61;101120.22;5114584;27;44974;-71
2022/06/01 07:11:59;;;;;;;;;4.00;4.00;;;;;17.62;42.20;101131.97;5125795;27;45665;-70
2022/06/01 07:14:24;;;;;;;;;1.67;1.67;;;;;17.68;42.35;101138.28;5106014;27;45044;-70
2022/06/01 07:16:49;;;;;;;;;5.00;2.67;;;;;17.76;42.51;101140.13;5131073;27;49757;-70
2022/06/01 07:19:15;;;;;;;;;6.33;6.33;;;;;17.62;42.08;101122.09;5118214;27;45013;-71
2022/06/01 07:21:41;;;;;;;;;6.33;4.67;;;;;17.65;42.48;101108.59;5114985;27;44966;-71
2022/06/01 07:24:08;;;;;;;;;9.50;8.75;;;;;17.90;42.16;101133.03;5113778;27;44911;-71
2022/06/01 07:26:40;;;;;;;;;7.33;4.33;;;;;18.00;41.96;101126.72;5117953;27;46187;-70
2022/06/01 07:29:06;;;;;;;;;4.00;2.33;;;;;17.93;41.55;101100.56;5110758;27;45460;-71
2022/06/01 07:31:32;;;;;;;;;21.75;17.00;;;;;18.07;42.11;101111.41;5116528;27;45233;-75
2022/06/01 07:33:58;;;;;;;;;20.75;15.75;;;;;18.29;41.27;101119.53;5120332;27;45237;-75
2022/06/01 07:36:26;;;;;;;;;5.33;3.67;;;;;18.37;40.82;101125.84;5115803;27;45966;-75
2022/06/01 07:44:32;;;;;;;;;2.00;2.00;;;;;18.84;40.21;101124.97;5105713;27;46331;-75
2022/06/01 07:46:58;;;;;;;;;5.00;3.67;;;;;18.94;39.90;101113.22;5113935;27;45491;-74
2022/06/01 07:49:23;;;;;;;;;4.33;4.33;;;;;19.11;39.86;101118.56;5115922;27;45377;-74
2022/06/01 07:51:48;;;;;;;;;3.67;3.00;;;;;19.11;39.29;101115.84;5101809;27;45476;-74
2022/06/01 07:54:15;;;;;;;;;5.33;4.33;;;;;19.14;39.41;101112.25;5102878;27;45615;-74
2022/06/01 07:56:40;;;;;;;;;4.00;2.67;;;;;19.13;39.38;101111.34;5113435;27;46212;-73
2022/06/01 07:59:09;;;;;;;;;8.00;5.00;;;;;19.27;39.20;101119.44;5110508;27;45358;-73
2022/06/01 08:01:36;;;;;;;;;6.00;2.00;;;;;19.32;39.64;101125.72;5091742;27;45426;-74
2022/06/01 08:04:03;;;;;;;;;6.67;6.33;;;;;19.24;39.21;101105.91;5095975;27;45456;-74
2022/06/01 08:06:30;;;;;;;;;4.00;3.00;;;;;19.38;39.01;101110.34;5095808;27;46671;-74
2022/06/01 08:08:56;;;;;;;;;5.33;4.00;;;;;19.32;38.94;101112.19;5096088;27;45396;-74
2022/06/01 08:13:06;;;;;;;;;7.33;4.00;;;;;19.34;38.94;101107.66;5077350;27;45243;-74
2022/06/01 08:14:10;;;;;;;;;3.33;2.33;;;;;19.45;38.88;101131.09;5096612;27;45657;-74
2022/06/01 08:16:38;;;;;;;;;5.00;4.00;;;;;19.25;39.08;101110.38;5096759;27;46076;-74
2022/06/01 08:19:04;;;;;;;;;4.00;4.00;;;;;19.33;39.05;101118.50;5096136;27;45389;-73
2022/06/01 08:21:29;;;;;;;;;4.33;4.33;;;;;19.13;39.17;101075.22;5096221;27;45353;-74
2022/06/01 08:23:55;;;;;;;;;5.67;4.67;;;;;19.37;39.30;101130.22;5093060;27;45458;-74
2022/06/01 08:26:20;;;;;;;;;6.33;5.33;;;;;19.30;39.48;101124.84;5100081;27;45371;-74
2022/06/01 08:28:45;;;;;;;;;5.00;5.00;;;;;19.32;39.45;101125.72;5096073;27;45645;-73
2022/06/01 08:31:11;;;;;;;;;6.33;6.00;;;;;19.38;39.50;101124.78;5095804;27;46498;-74
2022/06/01 08:33:37;;;;;;;;;4.00;3.67;;;;;19.41;39.00;101113.94;5096018;27;45334;-74
2022/06/01 08:36:02;;;;;;;;;1.00;1.00;;;;;19.56;38.55;101131.94;5096232;27;47284;-74
2022/06/01 08:38:27;;;;;;;;;3.67;3.67;;;;;19.44;38.53;101081.41;5096993;27;45467;-74
2022/06/01 08:41:04;;;;;;;;;4.00;3.00;;;;;19.75;38.77;101118.28;5097051;27;45497;-74
2022/06/01 08:43:35;;;;;;;;;9.33;6.00;;;;;19.52;38.64;101059.72;5111418;27;45306;-74
2022/06/01 08:46:03;;;;;;;;;6.00;3.67;;;;;19.92;37.93;101113.72;5115769;27;45363;-74
2022/06/01 08:48:36;;;;;;;;;7.00;4.67;;;;;19.95;37.91;101101.97;5115377;27;45394;-74
2022/06/01 08:51:02;;;;;;;;;3.00;3.00;;;;;19.85;37.62;101087.56;5066922;27;45624;-74
2022/06/01 08:53:27;;;;;;;;;3.00;3.00;;;;;19.95;37.94;101107.38;5114124;27;45508;-74
2022/06/01 08:55:58;;;;;;;;;3.33;3.00;;;;;20.07;37.80;101116.31;5095809;27;45940;-73
2022/06/01 08:58:51;;;;;;;;;2.00;2.00;;;;;19.78;36.92;101043.31;5095496;27;45484;-73
2022/06/01 09:01:37;;;;;;;;;4.67;2.33;;;;;20.26;36.97;101116.19;5101539;27;45675;-74
2022/06/01 09:04:22;;;;;;;;;3.67;3.67;;;;;20.37;36.88;101122.41;5114442;27;45447;-73
2022/06/01 09:06:54;;;;;;;;;2.00;1.00;;;;;20.32;36.85;101102.56;5115193;27;45490;-74
2022/06/01 09:09:40;;;;;;;;;2.00;2.00;;;;;20.35;37.21;101121.53;5096586;27;45515;-74
2022/06/01 09:12:06;;;;;;;;;2.00;2.00;;;;;20.48;36.67;101122.34;5115210;27;45386;-74
2022/06/01 09:14:37;;;;;;;;;3.33;2.00;;;;;20.61;36.73;101120.44;5115321;27;45516;-74
2022/06/01 09:17:03;;;;;;;;;6.00;6.00;;;;;20.76;36.47;101120.31;5101716;27;46083;-73
2022/06/01 09:22:38;;;;;;;;;3.67;3.67;;;;;20.78;36.76;101113.03;5111330;27;45495;-74
2022/06/01 09:25:13;;;;;;;;;3.33;2.00;;;;;20.90;36.68;101125.59;5114994;27;45378;-73
2022/06/01 09:27:48;;;;;;;;;3.00;3.00;;;;;20.99;36.61;101125.50;5114311;27;45385;-74
2022/06/01 09:30:24;;;;;;;;;2.67;2.67;;;;;20.96;36.22;101127.34;5114778;27;45449;-74
2022/06/01 09:33:01;;;;;;;;;3.00;3.00;;;;;21.05;36.55;101124.56;5114715;27;45392;-73
2022/06/01 09:35:29;;;;;;;;;3.00;3.00;;;;;20.98;36.23;101098.34;5115176;27;45523;-74
2022/06/01 09:37:54;;;;;;;;;2.33;2.33;;;;;20.99;36.46;101108.31;5114367;27;46253;-73
2022/06/01 09:40:31;;;;;;;;;2.00;1.00;;;;;20.82;36.00;101094.88;5114397;27;45777;-73
2022/06/01 09:43:01;;;;;;;;;4.33;4.33;;;;;20.92;35.60;101128.28;5114375;27;45341;-72
2022/06/01 09:45:30;;;;;;;;;1.00;1.00;;;;;20.83;35.82;101128.41;5114460;27;45378;-74
2022/06/01 09:48:29;;;;;;;;;2.67;1.33;;;;;20.78;36.38;101129.31;5113775;27;45914;-72
2022/06/01 09:51:16;;;;;;;;;2.00;1.00;;;;;20.56;36.24;101070.72;5102327;27;45290;-71
2022/06/01 09:53:45;;;;;;;;;2.00;2.00;;;;;20.97;36.18;101127.34;5096140;27;45473;-72
2022/06/01 09:56:11;;;;;;;;;3.33;2.00;;;;;21.15;35.69;101117.16;5114607;27;45349;-73
2022/06/01 10:07:06;;;;;;;;;2.33;2.33;;;;;20.95;35.21;101088.44;5114124;27;45460;-74
2022/06/01 10:09:34;;;;;;;;;1.00;1.00;;;;;21.17;34.29;101118.97;5113791;27;47106;-74
2022/06/01 10:12:19;;;;;;;;;2.00;2.00;;;;;20.74;35.09;101045.19;5114615;27;45245;-74
2022/06/01 10:14:56;;;;;;;;;3.33;1.67;;;;;21.10;34.23;101109.09;5114828;27;45357;-74
2022/06/01 10:17:35;;;;;;;;;5.00;5.00;;;;;21.09;34.81;101098.25;5117829;27;45467;-74
2022/06/01 10:20:28;;;;;;;;;2.00;2.00;;;;;21.26;34.69;101115.22;5118174;27;46262;-73
2022/06/01 10:23:15;;;;;;;;;4.00;3.00;;;;;21.38;34.43;101113.28;5104575;27;45490;-74
2022/06/01 10:25:44;;;;;;;;;3.67;3.33;;;;;21.43;33.91;101115.03;5115193;27;45398;-74
2022/06/01 10:28:17;;;;;;;;;2.00;2.00;;;;;21.45;33.93;101113.19;5119005;27;45356;-74
2022/06/01 10:30:50;;;;;;;;;5.00;4.00;;;;;21.45;34.54;101107.75;5117725;27;45528;-74
2022/06/01 10:33:34;;;;;;;;;5.33;4.33;;;;;21.32;34.17;101087.09;5117255;27;45472;-74
2022/06/01 10:36:10;;;;;;;;;2.33;2.00;;;;;21.48;34.21;101109.56;5117259;27;45441;-72
2022/06/01 10:38:46;;;;;;;;;2.00;2.00;;;;;21.50;34.51;101105.91;5081855;27;45430;-72
2022/06/01 10:41:17;;;;;;;;;2.00;2.00;;;;;21.59;34.59;101104.00;5116980;27;45279;-73
2022/06/01 10:43:53;;;;;;;;;5.67;4.00;;;;;21.60;34.04;101098.53;5116845;27;45486;-74
2022/06/01 10:46:40;;;;;;;;;5.67;3.33;;;;;21.75;34.35;101107.41;5117080;27;45336;-74
2022/06/01 10:49:41;;;;;;;;;4.00;4.00;;;;;21.78;33.97;101110.06;5117516;27;45834;-73
2022/06/01 10:52:24;;;;;;;;;3.00;3.00;;;;;21.65;34.07;101107.53;5116859;27;46036;-74
2022/06/01 10:55:04;;;;;;;;;3.33;3.33;;;;;21.61;34.40;101107.59;5116355;27;45280;-73
2022/06/01 10:57:30;;;;;;;;;3.00;3.00;;;;;21.40;33.85;101070.66;5116077;27;45563;-74
2022/06/01 10:59:57;;;;;;;;;1.00;1.00;;;;;21.61;33.21;101099.41;5117210;27;45458;-74
2022/06/01 11:02:28;;;;;;;;;4.00;4.00;;;;;21.71;33.19;101104.72;5116493;27;45454;-73
2022/06/01 11:05:13;;;;;;;;;4.00;1.00;;;;;21.81;32.87;101091.91;5116617;27;45506;-73
2022/06/01 11:08:05;;;;;;;;;3.33;3.00;;;;;21.78;32.29;101100.09;5117654;27;45332;-74
2022/06/01 11:10:39;;;;;;;;;1.33;1.33;;;;;21.84;32.29;101082.78;5117600;27;45482;-74
2022/06/01 11:13:19;;;;;;;;;2.00;2.00;;;;;21.83;32.04;101090.06;5116725;27;45526;-74
2022/06/01 11:16:04;;;;;;;;;3.00;3.00;;;;;21.93;32.11;101081.72;5116640;27;45413;-74
2022/06/01 11:18:54;;;;;;;;;2.67;2.67;;;;;21.87;32.56;101060.97;5116645;27;45298;-74
2022/06/01 11:21:48;;;;;;;;;4.00;2.00;;;;;21.53;32.92;101015.25;5116740;27;45458;-74
2022/06/01 11:24:35;;;;;;;;;3.00;2.33;;;;;21.89;32.88;101079.09;5116323;27;45302;-74
2022/06/01 11:27:10;;;;;;;;;2.00;2.00;;;;;21.93;31.88;101077.22;5115882;27;45500;-74
2022/06/01 11:29:35;;;;;;;;;2.00;2.00;;;;;21.88;31.44;101077.28;5116153;27;45437;-74
2022/06/01 11:32:14;;;;;;;;;4.67;3.33;;;;;21.77;31.31;101041.19;5116565;27;45377;-73
2022/06/01 11:34:56;;;;;;;;;4.33;1.00;;;;;21.97;31.48;101073.50;5114174;27;45538;-74
2022/06/01 11:37:34;;;;;;;;;16.67;13.33;;;;;22.00;32.15;101048.97;5077768;27;45559;-74
2022/06/01 11:40:15;;;;;;;;;7.67;6.00;;;;;21.92;31.75;101028.25;5096281;27;45568;-74
2022/06/01 11:42:58;;;;;;;;;3.00;1.00;;;;;22.04;31.03;101044.38;5109949;27;45270;-74
2022/06/01 11:45:33;;;;;;;;;2.00;2.00;;;;;22.05;31.46;101066.13;5116041;27;45721;-74
2022/06/01 11:48:07;;;;;;;;;2.33;2.33;;;;;22.01;31.66;101058.03;5116075;27;45314;-74
2022/06/01 11:50:32;;;;;;;;;1.33;1.33;;;;;22.00;31.26;101058.97;5116121;27;45377;-74
2022/06/01 11:52:57;;;;;;;;;0.00;0.00;;;;;21.93;31.21;101050.00;5116441;27;45420;-74
2022/06/01 11:55:35;;;;;;;;;3.33;2.00;;;;;22.05;31.64;101051.63;5116365;27;45376;-74
2022/06/01 11:58:04;;;;;;;;;3.00;2.33;;;;;22.08;31.39;101051.59;5115969;27;45332;-74
2022/06/01 12:00:48;;;;;;;;;2.00;2.00;;;;;22.12;31.59;101053.31;5115894;27;45341;-73
2022/06/01 12:03:19;;;;;;;;;5.00;5.00;;;;;22.12;31.81;101050.59;5116098;27;45429;-73
2022/06/01 12:06:06;;;;;;;;;2.00;2.00;;;;;22.04;31.29;101048.00;5115761;27;46594;-73